Time;durP1;ratioP1;P1;durP2;ratioP2;P2;SDS_P1;SDS_P2;PMS_P1;PMS_P2;Temp;Humidity;BMP_temperature;BMP_pressure;BME280_temperature;BME280_humidity;BME280_pressure;Samples;Min_cycle;Max_cycle;Signal;HPM_P1;HPM_P2
2021/11/05 00:01:01;;;;;;;57.88;2.60;;;7.10;1.00;;;;;;5133344;27;20254;-70
2021/11/05 00:03:29;;;;;;;57.67;2.60;;;7.10;1.00;;;;;;5133426;27;20245;-70
2021/11/05 00:05:56;;;;;;;57.85;2.55;;;7.00;1.00;;;;;;5133245;27;20447;-70
2021/11/05 00:08:25;;;;;;;57.90;2.63;;;7.00;1.00;;;;;;5133351;27;20239;-70
2021/11/05 00:10:52;;;;;;;57.85;2.70;;;7.10;1.00;;;;;;5133793;27;20465;-70
2021/11/05 00:13:19;;;;;;;58.38;3.78;;;7.10;1.00;;;;;;5133374;27;20675;-70
2021/11/05 00:15:46;;;;;;;58.08;2.80;;;7.10;1.00;;;;;;5133093;27;20222;-70
2021/11/05 00:18:13;;;;;;;58.08;2.85;;;7.10;1.00;;;;;;5133340;27;20234;-70
2021/11/05 00:20:40;;;;;;;58.07;2.70;;;7.10;1.00;;;;;;5133428;27;20261;-70
2021/11/05 00:23:08;;;;;;;57.75;2.60;;;7.10;1.00;;;;;;5133367;27;20823;-70
2021/11/05 00:25:36;;;;;;;58.38;2.92;;;7.20;1.00;;;;;;5133075;27;20616;-70
2021/11/05 00:28:03;;;;;;;57.97;2.80;;;7.10;1.00;;;;;;5133055;27;20755;-70
2021/11/05 00:30:30;;;;;;;57.90;2.70;;;7.10;1.00;;;;;;5133115;27;20224;-70
2021/11/05 00:32:58;;;;;;;57.85;2.70;;;7.00;1.00;;;;;;5133333;27;20454;-71
2021/11/05 00:35:25;;;;;;;57.85;2.70;;;7.00;1.00;;;;;;5132338;27;20293;-71
2021/11/05 00:37:51;;;;;;;57.85;2.70;;;7.00;1.00;;;;;;5133449;27;20294;-71
2021/11/05 00:40:19;;;;;;;58.08;2.75;;;7.00;1.00;;;;;;5133085;27;20230;-71
2021/11/05 00:42:48;;;;;;;57.88;2.70;;;6.90;1.00;;;;;;5133336;27;20199;-71
2021/11/05 00:45:15;;;;;;;57.97;2.70;;;6.90;1.00;;;;;;5133043;27;20208;-71
2021/11/05 00:47:42;;;;;;;58.10;2.80;;;6.90;1.00;;;;;;5133044;27;20875;-71
2021/11/05 00:50:09;;;;;;;58.05;2.70;;;6.90;1.00;;;;;;5132962;27;20229;-71
2021/11/05 00:52:36;;;;;;;58.10;2.50;;;6.80;1.00;;;;;;5133124;27;20214;-71
2021/11/05 00:55:04;;;;;;;58.05;2.72;;;6.80;1.00;;;;;;5132641;27;20991;-72
2021/11/05 00:57:31;;;;;;;58.08;2.80;;;6.80;1.00;;;;;;5132951;27;20238;-72
2021/11/05 00:59:59;;;;;;;57.97;2.80;;;6.70;1.00;;;;;;5132810;27;20594;-72
2021/11/05 01:02:26;;;;;;;58.40;3.45;;;6.70;1.00;;;;;;5132788;27;20304;-72
2021/11/05 01:04:53;;;;;;;58.28;3.00;;;6.70;1.00;;;;;;5132785;27;20199;-72
2021/11/05 01:07:20;;;;;;;58.03;2.80;;;6.70;1.00;;;;;;5132634;27;20294;-72
2021/11/05 01:09:47;;;;;;;58.20;3.10;;;6.70;1.00;;;;;;5132659;27;20227;-71
2021/11/05 01:12:14;;;;;;;58.08;2.80;;;6.60;1.00;;;;;;5133038;27;20238;-73
2021/11/05 01:14:41;;;;;;;58.30;2.90;;;6.60;1.00;;;;;;5130679;27;20229;-71
2021/11/05 01:17:10;;;;;;;59.03;3.35;;;6.60;1.00;;;;;;5131619;27;20208;-73
2021/11/05 01:19:36;;;;;;;58.08;2.78;;;6.60;1.00;;;;;;5131782;27;20540;-70
2021/11/05 01:22:04;;;;;;;59.00;2.90;;;6.60;1.00;;;;;;5131478;27;20516;-71
2021/11/05 01:24:31;;;;;;;58.05;2.80;;;6.60;1.00;;;;;;5132264;27;20523;-72
2021/11/05 01:26:58;;;;;;;58.03;2.53;;;6.60;1.00;;;;;;5132119;27;20201;-72
2021/11/05 01:29:25;;;;;;;58.20;2.80;;;6.60;1.00;;;;;;5132313;27;20501;-72
2021/11/05 01:31:52;;;;;;;58.20;2.83;;;6.60;1.00;;;;;;5131961;27;20209;-72
2021/11/05 01:34:21;;;;;;;58.28;2.80;;;6.60;1.00;;;;;;5131922;27;20718;-71
2021/11/05 01:36:47;;;;;;;58.10;2.58;;;6.60;1.00;;;;;;5131544;27;20264;-71
2021/11/05 01:39:15;;;;;;;58.10;3.05;;;6.60;1.00;;;;;;5132157;27;20295;-71
2021/11/05 01:41:43;;;;;;;58.10;2.75;;;6.60;1.00;;;;;;5132307;27;20606;-71
2021/11/05 01:44:10;;;;;;;58.08;2.80;;;6.60;1.00;;;;;;5132209;27;20290;-71
2021/11/05 01:46:41;;;;;;;58.20;2.50;;;6.60;1.00;;;;;;5134323;27;20217;-72
2021/11/05 01:49:08;;;;;;;58.38;2.90;;;6.50;1.00;;;;;;5135681;27;20207;-71
2021/11/05 01:51:37;;;;;;;57.95;2.80;;;6.50;1.00;;;;;;5136386;27;20252;-71
2021/11/05 01:54:08;;;;;;;58.15;2.80;;;6.50;1.00;;;;;;5134627;27;20570;-71
2021/11/05 01:56:35;;;;;;;58.30;3.33;;;6.50;1.00;;;;;;5135945;27;20257;-70
2021/11/05 01:59:03;;;;;;;58.25;2.70;;;6.50;1.00;;;;;;5135931;27;20252;-71
2021/11/05 02:01:30;;;;;;;58.15;2.65;;;6.50;1.00;;;;;;5135888;27;20220;-71
2021/11/05 02:03:57;;;;;;;58.28;2.72;;;6.50;1.00;;;;;;5135637;27;20214;-71
2021/11/05 02:06:24;;;;;;;58.28;2.90;;;6.50;1.00;;;;;;5135457;27;20294;-71
2021/11/05 02:08:53;;;;;;;57.95;2.60;;;6.50;1.00;;;;;;5135323;27;20235;-71
2021/11/05 02:11:21;;;;;;;58.20;2.75;;;6.50;1.00;;;;;;5133120;27;20657;-71
2021/11/05 02:13:48;;;;;;;58.22;2.80;;;6.50;1.00;;;;;;5135520;27;20290;-71
2021/11/05 02:16:16;;;;;;;58.08;3.00;;;6.50;1.00;;;;;;5135203;27;20309;-71
2021/11/05 02:18:44;;;;;;;57.95;2.75;;;6.40;1.00;;;;;;5135700;27;20210;-71
2021/11/05 02:21:17;;;;;;;57.97;2.90;;;6.50;1.00;;;;;;5135628;27;20234;-71
2021/11/05 02:23:46;;;;;;;57.97;2.78;;;6.40;1.00;;;;;;5134981;27;20260;-72
2021/11/05 02:26:13;;;;;;;58.50;3.35;;;6.40;1.00;;;;;;5114141;28;20239;-71
2021/11/05 02:28:41;;;;;;;57.97;2.65;;;6.40;1.00;;;;;;5114199;28;20291;-71
2021/11/05 02:31:08;;;;;;;57.95;2.58;;;6.40;1.00;;;;;;5114774;28;20310;-71
2021/11/05 02:33:35;;;;;;;58.17;2.50;;;6.40;1.00;;;;;;5114526;28;20218;-71
2021/11/05 02:36:01;;;;;;;58.28;2.70;;;6.40;1.00;;;;;;5114367;27;20245;-71
2021/11/05 02:38:28;;;;;;;58.15;2.83;;;6.40;1.00;;;;;;5114525;28;20311;-71
2021/11/05 02:40:56;;;;;;;58.15;2.80;;;6.40;1.00;;;;;;5114798;28;20315;-71
2021/11/05 02:43:23;;;;;;;58.28;2.83;;;6.30;1.00;;;;;;5114554;28;20208;-71
2021/11/05 02:45:54;;;;;;;58.00;2.80;;;6.30;1.00;;;;;;5114032;28;20298;-71
2021/11/05 02:48:21;;;;;;;57.97;2.65;;;6.30;1.00;;;;;;5114180;28;20268;-71
2021/11/05 02:50:49;;;;;;;58.17;2.80;;;6.30;1.00;;;;;;5114063;28;20306;-71
2021/11/05 02:53:16;;;;;;;58.08;2.80;;;6.30;1.00;;;;;;5114357;28;20640;-71
2021/11/05 02:55:43;;;;;;;58.03;2.80;;;6.30;1.00;;;;;;5113169;28;20310;-71
2021/11/05 02:58:11;;;;;;;58.10;2.80;;;6.30;1.00;;;;;;5112504;28;20208;-71
2021/11/05 03:00:38;;;;;;;58.08;2.78;;;6.30;1.00;;;;;;5114302;28;20319;-71
2021/11/05 03:03:06;;;;;;;58.17;2.88;;;6.30;1.00;;;;;;5114109;28;20298;-71
2021/11/05 03:05:33;;;;;;;58.10;2.72;;;6.30;1.00;;;;;;5113691;28;20243;-71
2021/11/05 03:07:59;;;;;;;58.05;2.80;;;6.30;1.00;;;;;;5114197;28;20204;-71
2021/11/05 03:10:26;;;;;;;58.20;2.67;;;6.30;1.00;;;;;;5114037;28;20255;-71
2021/11/05 03:12:53;;;;;;;57.97;2.50;;;6.30;1.00;;;;;;5114048;28;20690;-71
2021/11/05 03:15:22;;;;;;;58.17;2.70;;;6.30;1.00;;;;;;5113481;28;20315;-72
2021/11/05 03:17:49;;;;;;;58.28;2.80;;;6.30;1.00;;;;;;5113654;28;20203;-71
2021/11/05 03:20:17;;;;;;;58.08;2.63;;;6.30;1.00;;;;;;5113627;28;20230;-71
2021/11/05 03:22:45;;;;;;;58.10;2.60;;;6.30;1.00;;;;;;5114055;28;20244;-71
2021/11/05 03:25:12;;;;;;;58.17;2.70;;;6.30;1.00;;;;;;5113604;28;20206;-71
2021/11/05 03:27:39;;;;;;;58.28;3.65;;;6.30;1.90;;;;;;5113450;28;20210;-71
2021/11/05 03:30:08;;;;;;;58.08;2.60;;;6.20;3.20;;;;;;5113671;28;20233;-71
2021/11/05 03:32:37;;;;;;;58.00;2.60;;;6.30;4.00;;;;;;5113625;28;20210;-71
2021/11/05 03:35:04;;;;;;;57.95;2.67;;;6.20;4.00;;;;;;5113772;28;20233;-71
2021/11/05 03:37:31;;;;;;;58.08;2.70;;;6.20;4.10;;;;;;5115916;28;20242;-72
2021/11/05 03:39:58;;;;;;;57.97;2.78;;;6.20;4.60;;;;;;5119739;28;20389;-72
2021/11/05 03:42:25;;;;;;;58.17;2.80;;;6.20;5.70;;;;;;5120109;28;20703;-72
2021/11/05 03:44:52;;;;;;;58.08;2.72;;;6.20;7.10;;;;;;5119971;28;20290;-71
2021/11/05 03:47:19;;;;;;;58.05;2.70;;;6.20;8.30;;;;;;5120301;27;20224;-72
2021/11/05 03:49:47;;;;;;;57.85;2.75;;;6.30;9.60;;;;;;5120098;28;20296;-72
2021/11/05 03:52:14;;;;;;;58.17;2.67;;;6.30;10.50;;;;;;5120463;28;20242;-72
2021/11/05 03:54:41;;;;;;;58.00;2.60;;;6.20;11.00;;;;;;5120692;28;20199;-72
2021/11/05 03:57:08;;;;;;;58.47;2.80;;;6.20;11.70;;;;;;5121201;28;20227;-72
2021/11/05 03:59:35;;;;;;;58.08;2.60;;;6.20;12.90;;;;;;5113042;28;20204;-72
2021/11/05 04:02:02;;;;;;;58.00;2.70;;;6.20;13.50;;;;;;5113311;28;20306;-72
2021/11/05 04:04:29;;;;;;;61.35;4.57;;;6.20;14.10;;;;;;5112960;28;20276;-72
2021/11/05 04:06:58;;;;;;;58.17;2.70;;;6.20;14.90;;;;;;5112763;28;20203;-71
2021/11/05 04:09:24;;;;;;;58.10;3.17;;;6.20;16.90;;;;;;5112966;28;20210;-71
2021/11/05 04:11:51;;;;;;;58.40;2.90;;;6.10;17.30;;;;;;5112810;28;20317;-71
2021/11/05 04:14:18;;;;;;;58.70;2.90;;;6.20;19.00;;;;;;5112727;28;20239;-71
2021/11/05 04:16:45;;;;;;;58.30;3.20;;;6.20;20.70;;;;;;5112644;28;20307;-70
2021/11/05 04:19:12;;;;;;;58.90;3.55;;;6.20;22.20;;;;;;5113043;28;20207;-71
2021/11/05 04:21:39;;;;;;;58.30;3.10;;;6.20;23.50;;;;;;5112772;28;20223;-71
2021/11/05 04:24:07;;;;;;;58.25;2.80;;;6.20;25.30;;;;;;5112794;28;20286;-70
2021/11/05 04:26:35;;;;;;;57.97;2.80;;;6.20;26.40;;;;;;5112082;28;20243;-70
2021/11/05 04:29:02;;;;;;;58.50;3.38;;;6.20;28.50;;;;;;5112731;28;20239;-71
2021/11/05 04:31:29;;;;;;;58.28;3.00;;;6.20;29.80;;;;;;5112369;28;20790;-71
2021/11/05 04:33:56;;;;;;;58.20;2.70;;;6.30;31.70;;;;;;5112375;28;20217;-71
2021/11/05 04:36:23;;;;;;;57.97;2.80;;;6.20;32.60;;;;;;5112336;28;20226;-71
2021/11/05 04:38:51;;;;;;;58.60;3.33;;;6.30;33.90;;;;;;5112511;28;20630;-71
2021/11/05 04:41:22;;;;;;;58.20;2.72;;;6.30;35.10;;;;;;5112177;28;20247;-70
2021/11/05 04:43:50;;;;;;;58.00;2.78;;;6.30;34.60;;;;;;5112640;28;20235;-70
2021/11/05 04:46:17;;;;;;;57.95;2.50;;;6.30;32.70;;;;;;5112106;28;20195;-71
2021/11/05 04:48:44;;;;;;;58.30;2.75;;;6.30;31.10;;;;;;5112370;28;20687;-70
2021/11/05 04:51:11;;;;;;;58.20;3.13;;;6.30;31.40;;;;;;5112343;28;20315;-70
2021/11/05 04:53:38;;;;;;;57.85;2.80;;;6.30;32.40;;;;;;5112136;28;20214;-71
2021/11/05 04:56:05;;;;;;;57.97;2.70;;;6.30;33.40;;;;;;5111416;28;20725;-68
2021/11/05 04:58:34;;;;;;;57.97;2.83;;;6.30;34.50;;;;;;5112338;28;20265;-70
2021/11/05 05:01:01;;;;;;;57.95;2.60;;;6.30;35.10;;;;;;5112206;28;20310;-70
2021/11/05 05:03:28;;;;;;;58.40;2.80;;;6.30;36.10;;;;;;5112247;28;20575;-70
2021/11/05 05:05:55;;;;;;;58.08;2.60;;;6.30;37.30;;;;;;5111819;28;20231;-70
2021/11/05 05:08:23;;;;;;;58.17;2.80;;;6.30;38.40;;;;;;5111982;28;20262;-70
2021/11/05 05:10:50;;;;;;;57.95;2.50;;;6.30;40.20;;;;;;5112122;28;20262;-70
2021/11/05 05:13:16;;;;;;;58.03;2.55;;;6.40;40.90;;;;;;5112192;28;20260;-70
2021/11/05 05:15:45;;;;;;;57.97;2.70;;;6.40;42.40;;;;;;5111507;28;20219;-70
2021/11/05 05:18:15;;;;;;;57.88;2.50;;;6.40;43.30;;;;;;5111990;28;20580;-70
2021/11/05 05:20:42;;;;;;;58.95;3.10;;;6.40;44.20;;;;;;5112674;28;20239;-70
2021/11/05 05:23:10;;;;;;;58.17;2.72;;;6.40;45.40;;;;;;5116249;28;20285;-70
2021/11/05 05:25:37;;;;;;;57.97;2.70;;;6.40;46.00;;;;;;5115703;28;20199;-70
2021/11/05 05:28:04;;;;;;;58.17;2.70;;;6.40;46.30;;;;;;5116059;28;20337;-70
2021/11/05 05:30:31;;;;;;;57.85;2.63;;;6.40;47.30;;;;;;5115441;28;20232;-70
2021/11/05 05:33:00;;;;;;;58.15;2.90;;;6.40;47.90;;;;;;5115927;28;20206;-70
2021/11/05 05:35:27;;;;;;;58.08;2.95;;;6.40;48.10;;;;;;5115358;28;20212;-71
2021/11/05 05:37:54;;;;;;;58.58;2.90;;;6.40;48.70;;;;;;5115936;28;20230;-70
2021/11/05 05:40:21;;;;;;;57.80;2.53;;;6.40;49.50;;;;;;5115733;28;20315;-70
2021/11/05 05:42:49;;;;;;;57.88;2.70;;;6.50;50.10;;;;;;5116001;28;20210;-70
2021/11/05 05:45:16;;;;;;;58.08;2.60;;;6.50;50.40;;;;;;5115568;28;20239;-70
2021/11/05 05:47:43;;;;;;;58.50;3.33;;;6.50;51.20;;;;;;5115472;28;20215;-70
2021/11/05 05:50:13;;;;;;;57.67;2.60;;;6.50;52.00;;;;;;5115458;28;20227;-70
2021/11/05 05:52:40;;;;;;;58.08;2.90;;;6.50;52.20;;;;;;5115480;28;20207;-70
2021/11/05 05:55:09;;;;;;;57.95;2.65;;;6.50;52.50;;;;;;5115622;28;20210;-71
2021/11/05 05:57:36;;;;;;;58.17;2.90;;;6.50;53.30;;;;;;5115247;28;20316;-70
2021/11/05 06:00:05;;;;;;;58.10;2.70;;;6.50;53.70;;;;;;5115327;28;20717;-70
2021/11/05 06:02:33;;;;;;;58.00;2.70;;;6.50;54.40;;;;;;5115332;28;20207;-70
2021/11/05 06:05:00;;;;;;;57.90;2.60;;;6.50;55.00;;;;;;5115483;28;20633;-70
2021/11/05 06:07:28;;;;;;;57.90;2.60;;;6.50;55.40;;;;;;5115185;28;20428;-70
2021/11/05 06:09:55;;;;;;;58.17;2.60;;;6.50;55.70;;;;;;5115315;28;20228;-70
2021/11/05 06:12:22;;;;;;;57.97;2.58;;;6.50;56.40;;;;;;5115399;28;20291;-70
2021/11/05 06:14:49;;;;;;;57.90;2.50;;;6.50;56.50;;;;;;5115135;27;20207;-70
2021/11/05 06:17:16;;;;;;;57.90;2.70;;;6.50;57.10;;;;;;5114587;27;20793;-70
2021/11/05 06:19:43;;;;;;;58.30;2.90;;;6.50;57.60;;;;;;5115410;28;20294;-70
2021/11/05 06:22:11;;;;;;;57.90;2.60;;;6.50;58.20;;;;;;5115035;28;20634;-70
2021/11/05 06:24:40;;;;;;;57.97;2.60;;;6.50;58.60;;;;;;5115021;28;20203;-70
2021/11/05 06:27:07;;;;;;;57.85;2.60;;;6.50;59.10;;;;;;5114666;28;20291;-70
2021/11/05 06:29:34;;;;;;;58.08;2.60;;;6.50;59.50;;;;;;5114765;28;20672;-70
2021/11/05 06:32:01;;;;;;;58.05;2.80;;;6.50;60.10;;;;;;5113813;27;20208;-70
2021/11/05 06:34:28;;;;;;;57.85;2.65;;;6.60;60.40;;;;;;5114532;28;20308;-71
2021/11/05 06:36:54;;;;;;;58.17;3.00;;;6.60;60.80;;;;;;5114375;28;20314;-70
2021/11/05 06:39:21;;;;;;;57.88;2.70;;;6.60;60.90;;;;;;5115140;28;20638;-71
2021/11/05 06:41:49;;;;;;;58.08;2.70;;;6.60;61.20;;;;;;5114487;28;20228;-70
2021/11/05 06:44:16;;;;;;;57.95;2.55;;;6.60;61.60;;;;;;5114439;28;20294;-71
2021/11/05 06:46:43;;;;;;;58.10;2.70;;;6.70;61.90;;;;;;5114187;28;20740;-71
2021/11/05 06:49:10;;;;;;;58.10;2.50;;;6.70;62.30;;;;;;5114444;28;20747;-71
2021/11/05 06:51:37;;;;;;;57.85;2.60;;;6.70;62.40;;;;;;5114321;28;20312;-70
2021/11/05 06:54:04;;;;;;;58.08;2.90;;;6.70;62.70;;;;;;5114350;28;20291;-70
2021/11/05 06:56:31;;;;;;;57.92;2.65;;;6.70;62.90;;;;;;5114160;28;20773;-71
2021/11/05 06:59:01;;;;;;;58.03;2.70;;;6.70;63.00;;;;;;5114563;28;20290;-71
2021/11/05 07:01:28;;;;;;;57.97;2.72;;;6.80;63.30;;;;;;5114332;28;20230;-70
2021/11/05 07:03:55;;;;;;;57.97;2.60;;;6.80;63.90;;;;;;5114412;28;20295;-71
2021/11/05 07:06:23;;;;;;;58.15;2.65;;;6.80;63.90;;;;;;5114002;28;20311;-71
2021/11/05 07:08:50;;;;;;;57.88;2.60;;;6.90;63.90;;;;;;5114231;28;20209;-71
2021/11/05 07:11:17;;;;;;;58.08;2.70;;;6.90;64.50;;;;;;5114100;28;20228;-71
2021/11/05 07:13:44;;;;;;;58.00;3.08;;;6.90;64.30;;;;;;5114400;28;20232;-71
2021/11/05 07:16:12;;;;;;;57.97;2.60;;;6.90;64.50;;;;;;5113761;28;20295;-71
2021/11/05 07:18:39;;;;;;;58.08;2.83;;;6.90;64.70;;;;;;5114208;28;20636;-71
2021/11/05 07:21:06;;;;;;;57.97;2.80;;;6.90;64.90;;;;;;5114029;28;20219;-71
2021/11/05 07:23:33;;;;;;;57.85;2.83;;;6.90;65.00;;;;;;5114278;28;20203;-71
2021/11/05 07:26:01;;;;;;;58.03;2.70;;;7.00;65.30;;;;;;5113394;28;20235;-71
2021/11/05 07:28:28;;;;;;;57.90;2.60;;;7.00;65.40;;;;;;5113807;28;20984;-71
2021/11/05 07:30:55;;;;;;;58.00;2.90;;;7.00;65.70;;;;;;5113856;28;20845;-71
2021/11/05 07:33:24;;;;;;;57.88;2.72;;;7.00;65.80;;;;;;5113921;28;20205;-71
2021/11/05 07:35:50;;;;;;;57.67;2.63;;;7.00;66.40;;;;;;5113594;28;20268;-71
2021/11/05 07:38:19;;;;;;;58.00;2.72;;;7.00;66.20;;;;;;5113812;28;20829;-71
2021/11/05 07:40:46;;;;;;;58.08;2.70;;;7.00;66.40;;;;;;5113667;28;20227;-71
2021/11/05 07:43:14;;;;;;;57.95;2.60;;;7.00;66.80;;;;;;5113268;28;20241;-71
2021/11/05 07:45:40;;;;;;;58.10;2.83;;;7.10;67.30;;;;;;5113305;28;20289;-71
2021/11/05 07:48:08;;;;;;;57.95;2.80;;;7.10;67.40;;;;;;5113657;28;20232;-71
2021/11/05 07:50:37;;;;;;;57.85;2.60;;;7.10;67.80;;;;;;5113466;28;20259;-71
2021/11/05 07:53:05;;;;;;;57.85;2.70;;;7.20;68.40;;;;;;5113176;28;20213;-71
2021/11/05 07:55:33;;;;;;;57.90;3.00;;;7.20;68.70;;;;;;5113473;28;20201;-71
2021/11/05 07:58:00;;;;;;;57.88;2.70;;;7.20;69.00;;;;;;5113395;28;21093;-71
2021/11/05 08:00:27;;;;;;;58.05;2.80;;;7.20;69.50;;;;;;5113341;28;20353;-71
2021/11/05 08:02:54;;;;;;;58.20;2.67;;;7.30;70.00;;;;;;5113349;28;20205;-71
2021/11/05 08:05:21;;;;;;;58.45;2.95;;;7.30;70.10;;;;;;5113033;28;20536;-71
2021/11/05 08:07:49;;;;;;;57.88;2.65;;;7.40;71.00;;;;;;5112844;28;20291;-71
2021/11/05 08:10:20;;;;;;;57.97;2.70;;;7.40;71.00;;;;;;5113140;28;20310;-71
2021/11/05 08:12:48;;;;;;;57.97;2.63;;;7.50;98.00;;;;;;5112999;28;20447;-71
2021/11/05 08:15:15;;;;;;;57.90;2.70;;;7.50;76.10;;;;;;5112868;28;20442;-71
2021/11/05 08:17:43;;;;;;;57.78;2.70;;;7.60;77.70;;;;;;5112364;28;20520;-71
2021/11/05 08:20:11;;;;;;;57.88;2.70;;;7.60;99.80;;;;;;5112494;28;20269;-71
2021/11/05 08:22:38;;;;;;;57.83;2.70;;;7.70;73.80;;;;;;5112922;28;20211;-71
2021/11/05 08:25:07;;;;;;;57.83;2.53;;;7.70;78.00;;;;;;5112671;28;20484;-71
2021/11/05 08:27:35;;;;;;;57.83;2.70;;;7.80;89.30;;;;;;5112603;28;20439;-71
2021/11/05 08:30:03;;;;;;;57.90;2.80;;;7.80;87.10;;;;;;5113056;28;20475;-71
2021/11/05 08:32:30;;;;;;;57.87;2.50;;;7.80;80.70;;;;;;5112575;28;20450;-71
2021/11/05 08:34:57;;;;;;;58.10;2.60;;;7.90;78.80;;;;;;5112448;28;20468;-71
2021/11/05 08:37:24;;;;;;;57.93;2.60;;;7.90;75.40;;;;;;5112504;28;20221;-71
2021/11/05 08:39:50;;;;;;;57.77;2.60;;;7.90;75.50;;;;;;5112541;28;20919;-71
2021/11/05 08:42:19;;;;;;;58.17;3.00;;;8.00;75.50;;;;;;5112559;28;20536;-71
2021/11/05 08:44:46;;;;;;;57.80;2.47;;;8.10;77.40;;;;;;5112369;28;20209;-71
2021/11/05 08:47:13;;;;;;;58.07;2.80;;;8.10;75.60;;;;;;5111964;28;20479;-71
2021/11/05 08:49:40;;;;;;;57.83;2.83;;;8.10;76.50;;;;;;5112368;28;20483;-71
2021/11/05 08:52:07;;;;;;;57.93;2.77;;;8.20;75.60;;;;;;5123333;27;20523;-74
2021/11/05 08:54:35;;;;;;;57.63;2.60;;;8.20;75.70;;;;;;5131860;27;20543;-74
2021/11/05 08:57:02;;;;;;;57.77;2.80;;;8.40;76.30;;;;;;5131158;27;20477;-74
2021/11/05 08:59:30;;;;;;;57.97;3.00;;;8.50;77.00;;;;;;5132145;27;20460;-70
2021/11/05 09:01:57;;;;;;;58.00;2.70;;;8.50;77.50;;;;;;5132080;27;20489;-68
2021/11/05 09:04:24;;;;;;;58.00;2.90;;;8.50;75.80;;;;;;5132308;27;20980;-70
2021/11/05 09:06:51;;;;;;;57.97;2.63;;;8.40;75.00;;;;;;5132256;27;20941;-70
2021/11/05 09:09:20;;;;;;;58.10;2.90;;;8.40;74.20;;;;;;5130352;27;20872;-70
2021/11/05 09:11:49;;;;;;;58.03;2.90;;;8.30;73.90;;;;;;5132121;27;20507;-70
2021/11/05 09:14:16;;;;;;;57.77;2.60;;;8.40;73.70;;;;;;5131885;27;20993;-70
2021/11/05 09:16:45;;;;;;;59.10;3.27;;;8.40;71.40;;;;;;5131823;27;20451;-70
2021/11/05 09:19:12;;;;;;;58.10;2.70;;;8.40;65.80;;;;;;5132138;27;20477;-70
2021/11/05 09:21:39;;;;;;;57.87;2.80;;;8.50;64.10;;;;;;5131885;27;20549;-69
2021/11/05 09:24:07;;;;;;;57.93;2.80;;;8.70;63.50;;;;;;5132131;27;20443;-69
2021/11/05 09:26:34;;;;;;;57.77;2.70;;;8.90;67.80;;;;;;5131855;27;20440;-69
2021/11/05 09:29:00;;;;;;;57.87;2.80;;;9.20;73.70;;;;;;5131626;27;20482;-70
2021/11/05 09:31:28;;;;;;;58.00;2.80;;;9.50;77.20;;;;;;5131965;27;20462;-70
2021/11/05 09:33:56;;;;;;;58.10;2.97;;;9.80;79.30;;;;;;5131969;27;20897;-70
2021/11/05 09:36:23;;;;;;;57.90;2.57;;;10.30;81.60;;;;;;5131491;27;20450;-70
2021/11/05 09:38:50;;;;;;;58.00;2.60;;;10.90;84.90;;;;;;5130673;27;21037;-70
2021/11/05 09:41:17;;;;;;;57.83;2.70;;;11.70;88.50;;;;;;5131327;27;20470;-70
2021/11/05 09:43:44;;;;;;;58.03;2.70;;;12.30;90.00;;;;;;5132329;27;20444;-70
2021/11/05 09:46:12;;;;;;;58.10;2.80;;;12.50;85.50;;;;;;5132046;27;20882;-70
2021/11/05 09:48:39;;;;;;;58.40;2.80;;;12.90;77.00;;;;;;5132027;27;20807;-71
2021/11/05 09:51:08;;;;;;;57.80;2.90;;;13.30;72.10;;;;;;5132157;27;20584;-70
2021/11/05 09:53:38;;;;;;;58.23;2.50;;;13.20;56.50;;;;;;5132173;27;20447;-70
2021/11/05 09:56:07;;;;;;;57.93;2.93;;;13.00;30.70;;;;;;5131351;27;21455;-71
2021/11/05 09:58:36;;;;;;;58.40;2.90;;;12.80;1.00;;;;;;5131995;27;20506;-70
2021/11/05 10:01:03;;;;;;;57.80;2.97;;;12.40;1.00;;;;;;5131754;27;20555;-71
2021/11/05 10:03:30;;;;;;;58.23;2.80;;;12.10;1.00;;;;;;5132200;27;20452;-70
2021/11/05 10:05:57;;;;;;;58.17;2.70;;;11.80;1.00;;;;;;5131848;27;20501;-70
2021/11/05 10:08:31;;;;;;;58.07;2.67;;;11.50;1.00;;;;;;5135214;27;20440;-70
2021/11/05 10:10:59;;;;;;;58.07;2.70;;;11.20;1.00;;;;;;5134302;27;20475;-70
2021/11/05 10:13:26;;;;;;;58.00;2.60;;;11.00;1.00;;;;;;5135820;27;20819;-70
2021/11/05 10:15:57;;;;;;;58.07;2.70;;;10.90;1.00;;;;;;5134658;27;20488;-70
2021/11/05 10:18:27;;;;;;;57.97;2.90;;;10.70;1.00;;;;;;5135534;27;20529;-71
2021/11/05 10:21:10;;;;;;;58.27;3.00;;;10.50;1.00;;;;;;5135180;27;20499;-70
2021/11/05 10:23:39;;;;;;;59.33;3.10;;;10.30;1.00;;;;;;5135277;27;20531;-70
2021/11/05 10:26:07;;;;;;;58.23;2.77;;;10.10;1.00;;;;;;5134942;27;20539;-70
2021/11/05 10:28:37;;;;;;;58.40;2.90;;;10.00;1.00;;;;;;5135316;27;20444;-70
2021/11/05 10:31:07;;;;;;;58.03;2.70;;;9.90;1.00;;;;;;5135531;27;20467;-70
2021/11/05 10:33:40;;;;;;;58.07;2.60;;;9.80;1.00;;;;;;5135103;27;21194;-70
2021/11/05 10:36:08;;;;;;;58.10;2.67;;;9.80;1.50;;;;;;5134478;27;20444;-70
2021/11/05 10:38:39;;;;;;;58.03;2.70;;;9.80;6.80;;;;;;5135326;27;20593;-70
2021/11/05 10:41:09;;;;;;;58.27;2.70;;;9.80;14.30;;;;;;5134720;27;21233;-70
2021/11/05 10:43:39;;;;;;;58.07;2.50;;;9.90;17.90;;;;;;5133472;27;20479;-70
2021/11/05 10:46:08;;;;;;;58.17;2.60;;;9.90;19.70;;;;;;5134782;27;20530;-70
2021/11/05 10:48:39;;;;;;;58.07;2.80;;;10.00;21.50;;;;;;5134851;27;20535;-70
2021/11/05 10:51:08;;;;;;;57.87;2.80;;;10.20;27.90;;;;;;5134922;27;20964;-70
2021/11/05 10:53:39;;;;;;;58.07;2.80;;;10.30;32.90;;;;;;5133760;27;21011;-69
2021/11/05 10:56:07;;;;;;;57.83;2.70;;;10.70;42.30;;;;;;5134629;27;20487;-70
2021/11/05 10:58:36;;;;;;;58.40;3.10;;;10.90;50.30;;;;;;5134712;27;20496;-70
2021/11/05 11:01:06;;;;;;;58.07;2.70;;;11.30;61.50;;;;;;5134791;27;20471;-70
2021/11/05 11:03:36;;;;;;;58.17;3.00;;;11.80;70.10;;;;;;5134558;27;20444;-70
2021/11/05 11:06:08;;;;;;;58.20;2.70;;;13.20;81.20;;;;;;5133662;27;20928;-70
2021/11/05 11:08:38;;;;;;;57.97;2.80;;;14.10;85.20;;;;;;5134520;27;20440;-70
2021/11/05 11:11:19;;;;;;;57.97;2.90;;;14.40;61.80;;;;;;5134659;27;20478;-71
2021/11/05 11:13:47;;;;;;;58.23;2.83;;;14.80;55.20;;;;;;5133633;27;20445;-71
2021/11/05 11:16:18;;;;;;;58.70;3.30;;;15.20;55.40;;;;;;5112746;28;20530;-70
2021/11/05 11:18:58;;;;;;;57.80;2.73;;;16.60;74.60;;;;;;5113238;28;20485;-70
2021/11/05 11:21:28;;;;;;;58.13;3.00;;;17.90;36.90;;;;;;5113242;28;20468;-71
2021/11/05 11:23:56;;;;;;;58.43;2.70;;;18.50;1.00;;;;;;5114123;28;20805;-71
2021/11/05 11:26:26;;;;;;;58.30;2.80;;;18.30;1.00;;;;;;5113643;28;20868;-70
2021/11/05 11:28:53;;;;;;;58.17;2.90;;;17.80;1.00;;;;;;5113537;28;20951;-70
2021/11/05 11:31:20;;;;;;;58.03;2.60;;;17.00;1.00;;;;;;5113634;28;20776;-70
2021/11/05 11:33:50;;;;;;;57.67;2.70;;;16.20;1.00;;;;;;5113450;28;20459;-70
2021/11/05 11:36:18;;;;;;;57.70;2.60;;;15.40;1.00;;;;;;5112968;28;20869;-70
2021/11/05 11:38:48;;;;;;;58.10;2.70;;;14.70;1.00;;;;;;5113322;28;20569;-70
2021/11/05 11:41:16;;;;;;;58.40;2.77;;;14.20;1.00;;;;;;5113149;28;20466;-70
2021/11/05 11:43:45;;;;;;;58.33;2.40;;;13.70;1.00;;;;;;5113341;28;20488;-70
2021/11/05 11:46:12;;;;;;;58.07;2.70;;;13.50;1.00;;;;;;5111978;28;20904;-70
2021/11/05 11:48:46;;;;;;;58.17;2.80;;;13.50;1.00;;;;;;5113024;28;20528;-70
2021/11/05 11:51:33;;;;;;;57.77;2.60;;;13.50;1.00;;;;;;5113436;28;20913;-70
2021/11/05 11:54:21;;;;;;;58.00;2.57;;;13.60;1.00;;;;;;5113593;28;20430;-70
2021/11/05 11:56:48;;;;;;;58.20;2.80;;;13.70;1.00;;;;;;5113033;28;20472;-70
2021/11/05 11:59:17;;;;;;;58.37;3.10;;;13.80;1.00;;;;;;5113332;28;20473;-70
2021/11/05 12:01:46;;;;;;;58.00;2.60;;;13.70;1.00;;;;;;5113160;28;20545;-70
2021/11/05 12:04:15;;;;;;;58.27;2.90;;;13.40;1.00;;;;;;5113277;28;20449;-70
2021/11/05 12:07:03;;;;;;;58.43;2.87;;;13.20;1.00;;;;;;5112946;28;20532;-70
2021/11/05 12:09:33;;;;;;;58.20;2.90;;;13.00;1.00;;;;;;5113033;28;20433;-70
2021/11/05 12:12:32;;;;;;;58.33;2.60;;;12.80;1.00;;;;;;5113239;27;20532;-70
2021/11/05 12:15:16;;;;;;;57.87;2.50;;;12.70;1.00;;;;;;5112912;28;20472;-70
2021/11/05 12:18:06;;;;;;;58.20;2.80;;;12.70;1.00;;;;;;5112667;28;20878;-71
2021/11/05 12:20:35;;;;;;;58.10;2.60;;;12.70;1.00;;;;;;5112995;28;20891;-70
2021/11/05 12:23:26;;;;;;;58.60;3.27;;;12.60;1.00;;;;;;5112861;28;20839;-71
2021/11/05 12:25:58;;;;;;;58.40;2.60;;;12.50;1.00;;;;;;5108960;27;20449;-70
2021/11/05 12:28:29;;;;;;;58.17;3.00;;;12.50;1.00;;;;;;5112986;28;20473;-69
2021/11/05 12:31:25;;;;;;;57.90;2.53;;;12.40;1.00;;;;;;5111713;28;20996;-69
2021/11/05 12:33:52;;;;;;;57.87;2.40;;;12.30;1.00;;;;;;5112648;28;20489;-69
2021/11/05 12:36:19;;;;;;;58.00;2.80;;;12.20;1.00;;;;;;5112218;28;20536;-69
2021/11/05 12:39:02;;;;;;;58.03;2.60;;;12.10;1.00;;;;;;5112520;28;20477;-69
2021/11/05 12:41:29;;;;;;;57.97;2.60;;;12.10;1.00;;;;;;5112711;28;20496;-69
2021/11/05 12:44:10;;;;;;;57.87;2.60;;;12.10;1.00;;;;;;5112733;28;20496;-69
2021/11/05 12:46:46;;;;;;;57.93;2.50;;;12.20;1.00;;;;;;5112064;28;20451;-69
2021/11/05 12:49:16;;;;;;;58.27;2.90;;;12.40;1.00;;;;;;5112680;28;20473;-70
2021/11/05 12:51:46;;;;;;;58.03;2.50;;;12.60;1.00;;;;;;5112813;28;20992;-69
2021/11/05 12:54:17;;;;;;;58.40;2.90;;;12.80;1.00;;;;;;5112477;28;20544;-69
2021/11/05 12:56:50;;;;;;;58.00;2.73;;;13.10;1.00;;;;;;5112297;28;20446;-69